Time,TemperatureF,DewpointF,PressureIn,WindDirection,WindDirectionDegrees,WindSpeedMPH,WindSpeedGustMPH,Humidity,HourlyPrecipIn,Conditions,Clouds,dailyrainin,SoftwareType,DateUTC
2013-02-24 00:00:00,24.8,19.3,29.97,WSW,248,0.8,2.2,79,0.00,,,0.00,WUHU216HW,2013-02-24 06:00:00,
2013-02-24 00:05:00,24.7,19.1,29.97,WSW,248,1.1,2.2,79,0.00,,,0.00,WUHU216HW,2013-02-24 06:05:00,
2013-02-24 00:10:00,24.5,18.9,29.97,WSW,248,1.3,1.3,79,0.00,,,0.00,WUHU216HW,2013-02-24 06:10:00,
2013-02-24 00:15:00,24.3,18.7,29.97,SW,225,0.3,1.3,79,0.00,,,0.00,WUHU216HW,2013-02-24 06:15:00,
2013-02-24 00:20:00,24.1,18.5,29.98,WSW,248,0.5,1.3,79,0.00,,,0.00,WUHU216HW,2013-02-24 06:20:00,
2013-02-24 00:25:00,23.9,18.7,29.98,WSW,246,0.6,1.1,80,0.00,,,0.00,WUHU216HW,2013-02-24 06:25:00,
2013-02-24 00:30:00,23.9,18.7,29.98,WSW,248,1.1,1.3,80,0.00,,,0.00,WUHU216HW,2013-02-24 06:30:00,
2013-02-24 00:35:00,23.8,18.3,29.98,WSW,248,1.3,1.3,79,0.00,,,0.00,WUHU216HW,2013-02-24 06:35:00,
2013-02-24 00:40:00,23.6,18.4,29.98,WSW,248,2.2,2.2,80,0.00,,,0.00,WUHU216HW,2013-02-24 06:40:00,
2013-02-24 00:45:00,23.4,18.2,29.98,SW,225,0.5,2.2,80,0.00,,,0.00,WUHU216HW,2013-02-24 06:45:00,
2013-02-24 00:50:00,23.4,18.2,29.98,WSW,239,0.7,2.2,80,0.00,,,0.00,WUHU216HW,2013-02-24 06:50:00,
2013-02-24 00:55:00,23.4,18.2,29.98,WSW,247,0.8,2.2,80,0.00,,,0.00,WUHU216HW,2013-02-24 06:55:00,
2013-02-24 01:00:00,23.2,18.0,29.98,West,270,0.8,1.6,80,0.00,,,0.00,WUHU216HW,2013-02-24 07:00:00,
2013-02-24 01:05:00,23.0,17.8,29.98,SW,225,0.7,2.2,80,0.00,,,0.00,WUHU216HW,2013-02-24 07:05:00,
2013-02-24 01:10:00,22.9,17.6,29.99,West,270,0.0,2.2,80,0.00,,,0.00,WUHU216HW,2013-02-24 07:10:00,
2013-02-24 01:15:00,22.9,17.6,29.99,WSW,248,0.5,2.2,80,0.00,,,0.00,WUHU216HW,2013-02-24 07:15:00,
2013-02-24 01:20:00,22.9,17.6,29.98,SW,229,0.8,1.3,80,0.00,,,0.00,WUHU216HW,2013-02-24 07:20:00,
2013-02-24 01:25:00,23.0,18.1,29.98,WSW,248,0.3,1.3,81,0.00,,,0.00,WUHU216HW,2013-02-24 07:25:00,
2013-02-24 01:30:00,23.0,18.1,29.98,WSW,248,1.5,2.6,81,0.00,,,0.00,WUHU216HW,2013-02-24 07:30:00,
2013-02-24 01:35:00,23.0,18.1,29.98,WSW,248,3.2,3.5,81,0.00,,,0.00,WUHU216HW,2013-02-24 07:35:00,
2013-02-24 01:40:00,22.9,17.9,29.98,WSW,251,0.5,3.5,81,0.00,,,0.00,WUHU216HW,2013-02-24 07:40:00,
2013-02-24 01:45:00,22.7,17.7,29.98,SW,233,0.7,3.2,81,0.00,,,0.00,WUHU216HW,2013-02-24 07:45:00,
2013-02-24 01:50:00,22.7,17.7,29.98,WSW,248,0.8,3.2,81,0.00,,,0.00,WUHU216HW,2013-02-24 07:50:00,
2013-02-24 01:55:00,22.5,17.6,29.98,WSW,241,0.6,1.9,81,0.00,,,0.00,WUHU216HW,2013-02-24 07:55:00,
2013-02-24 02:00:00,22.3,17.4,29.98,SW,225,0.5,1.9,81,0.00,,,0.00,WUHU216HW,2013-02-24 08:00:00,
2013-02-24 02:05:00,22.1,17.2,29.99,SW,225,0.2,0.8,81,0.00,,,0.00,WUHU216HW,2013-02-24 08:05:00,
2013-02-24 02:10:00,22.1,17.2,29.98,SW,231,0.3,0.5,81,0.00,,,0.00,WUHU216HW,2013-02-24 08:10:00,
2013-02-24 02:15:00,22.0,17.3,29.99,SW,235,0.8,2.2,82,0.00,,,0.00,WUHU216HW,2013-02-24 08:15:00,
2013-02-24 02:20:00,22.0,17.3,29.99,SW,225,0.8,2.2,82,0.00,,,0.00,WUHU216HW,2013-02-24 08:20:00,
2013-02-24 02:25:00,21.8,17.1,29.99,SW,236,0.6,1.1,82,0.00,,,0.00,WUHU216HW,2013-02-24 08:25:00,
2013-02-24 02:30:00,21.8,17.1,29.99,SSW,212,0.5,0.8,82,0.00,,,0.00,WUHU216HW,2013-02-24 08:30:00,
2013-02-24 02:35:00,21.6,16.9,29.99,SW,225,0.5,0.8,82,0.00,,,0.00,WUHU216HW,2013-02-24 08:35:00,
2013-02-24 02:40:00,21.4,16.7,29.99,SW,231,1.0,1.3,82,0.00,,,0.00,WUHU216HW,2013-02-24 08:40:00,
2013-02-24 02:45:00,21.2,16.6,29.99,SW,225,0.5,1.3,82,0.00,,,0.00,WUHU216HW,2013-02-24 08:45:00,
2013-02-24 02:50:00,21.2,16.6,29.99,WSW,248,0.4,1.3,82,0.00,,,0.00,WUHU216HW,2013-02-24 08:50:00,
2013-02-24 02:55:00,21.2,16.6,29.99,WSW,248,1.1,1.3,82,0.00,,,0.00,WUHU216HW,2013-02-24 08:55:00,
2013-02-24 03:00:00,21.1,16.4,29.99,WSW,248,0.5,2.2,82,0.00,,,0.00,WUHU216HW,2013-02-24 09:00:00,
2013-02-24 03:05:00,20.9,16.2,29.99,WSW,248,0.5,2.2,82,0.00,,,0.00,WUHU216HW,2013-02-24 09:05:00,
2013-02-24 03:10:00,20.9,16.2,29.99,WSW,248,0.3,0.8,82,0.00,,,0.00,WUHU216HW,2013-02-24 09:10:00,
2013-02-24 03:15:00,20.7,16.0,29.99,WSW,239,0.6,1.3,82,0.00,,,0.00,WUHU216HW,2013-02-24 09:15:00,
2013-02-24 03:20:00,20.7,16.0,29.99,WSW,248,0.4,1.3,82,0.00,,,0.00,WUHU216HW,2013-02-24 09:20:00,
2013-02-24 03:25:00,20.5,15.8,29.99,WSW,248,1.1,1.6,82,0.00,,,0.00,WUHU216HW,2013-02-24 09:25:00,
2013-02-24 03:30:00,20.5,15.8,29.99,WSW,248,1.1,1.9,82,0.00,,,0.00,WUHU216HW,2013-02-24 09:30:00,
2013-02-24 03:35:00,20.5,15.8,29.99,WSW,248,0.8,1.9,82,0.00,,,0.00,WUHU216HW,2013-02-24 09:35:00,
2013-02-24 03:40:00,20.5,15.8,29.99,WSW,248,1.1,1.6,82,0.00,,,0.00,WUHU216HW,2013-02-24 09:40:00,
2013-02-24 03:45:00,20.5,16.1,30.00,SW,225,1.3,1.3,83,0.00,,,0.00,WUHU216HW,2013-02-24 09:45:00,
2013-02-24 03:50:00,20.5,16.1,30.00,West,270,1.3,1.9,83,0.00,,,0.00,WUHU216HW,2013-02-24 09:50:00,
2013-02-24 03:55:00,20.5,16.1,30.00,SW,230,0.8,3.2,83,0.00,,,0.00,WUHU216HW,2013-02-24 09:55:00,
2013-02-24 04:00:00,20.5,15.8,30.00,NW,315,0.5,3.2,82,0.00,,,0.00,WUHU216HW,2013-02-24 10:00:00,
2013-02-24 04:05:00,20.5,15.8,30.00,WNW,293,0.2,2.2,82,0.00,,,0.00,WUHU216HW,2013-02-24 10:05:00,
2013-02-24 04:10:00,20.3,15.7,30.00,West,270,2.2,2.2,82,0.00,,,0.00,WUHU216HW,2013-02-24 10:10:00,
2013-02-24 04:15:00,20.3,15.7,30.00,WSW,248,0.0,2.2,82,0.00,,,0.00,WUHU216HW,2013-02-24 10:15:00,
2013-02-24 04:20:00,20.2,15.5,30.00,West,270,0.8,2.2,82,0.00,,,0.00,WUHU216HW,2013-02-24 10:20:00,
2013-02-24 04:25:00,20.0,15.3,30.01,West,270,0.0,0.8,82,0.00,,,0.00,WUHU216HW,2013-02-24 10:25:00,
2013-02-24 04:30:00,19.8,15.1,30.00,SE,135,0.4,0.5,82,0.00,,,0.00,WUHU216HW,2013-02-24 10:30:00,
2013-02-24 04:35:00,19.6,14.9,30.01,SE,135,0.2,0.5,82,0.00,,,0.00,WUHU216HW,2013-02-24 10:35:00,
2013-02-24 04:40:00,19.4,14.8,30.01,SE,135,0.0,0.5,82,0.00,,,0.00,WUHU216HW,2013-02-24 10:40:00,
2013-02-24 04:45:00,19.1,14.4,30.01,SW,225,0.2,0.5,82,0.00,,,0.00,WUHU216HW,2013-02-24 10:45:00,
2013-02-24 04:50:00,19.1,14.4,30.02,WSW,254,0.4,0.5,82,0.00,,,0.00,WUHU216HW,2013-02-24 10:50:00,
2013-02-24 04:55:00,19.1,14.4,30.02,WSW,248,0.0,0.5,82,0.00,,,0.00,WUHU216HW,2013-02-24 10:55:00,
2013-02-24 05:00:00,19.1,14.7,30.02,SW,225,0.5,0.5,83,0.00,,,0.00,WUHU216HW,2013-02-24 11:00:00,
2013-02-24 05:05:00,19.1,14.7,30.02,SSW,203,0.5,0.8,83,0.00,,,0.00,WUHU216HW,2013-02-24 11:05:00,
2013-02-24 05:10:00,18.9,14.5,30.02,SSW,203,0.0,0.8,83,0.00,,,0.00,WUHU216HW,2013-02-24 11:10:00,
2013-02-24 05:15:00,18.7,14.3,30.02,SSW,203,0.5,0.5,83,0.00,,,0.00,WUHU216HW,2013-02-24 11:15:00,
2013-02-24 05:20:00,18.9,14.5,30.03,SSW,203,0.5,0.8,83,0.00,,,0.00,WUHU216HW,2013-02-24 11:20:00,
2013-02-24 05:25:00,18.9,14.5,30.03,SW,225,0.5,1.3,83,0.00,,,0.00,WUHU216HW,2013-02-24 11:25:00,
2013-02-24 05:30:00,18.9,14.8,30.03,SW,225,0.5,1.3,84,0.00,,,0.00,WUHU216HW,2013-02-24 11:30:00,
2013-02-24 05:35:00,18.9,14.8,30.04,WSW,248,0.8,1.1,84,0.00,,,0.00,WUHU216HW,2013-02-24 11:35:00,
2013-02-24 05:40:00,19.1,14.9,30.04,West,270,2.1,4.1,84,0.00,,,0.00,WUHU216HW,2013-02-24 11:40:00,
2013-02-24 05:45:00,19.1,14.9,30.04,West,270,1.3,4.1,84,0.00,,,0.00,WUHU216HW,2013-02-24 11:45:00,
2013-02-24 05:50:00,19.1,14.9,30.04,West,270,1.2,1.9,84,0.00,,,0.00,WUHU216HW,2013-02-24 11:50:00,
2013-02-24 05:55:00,19.1,14.9,30.03,West,270,3.0,3.0,84,0.00,,,0.00,WUHU216HW,2013-02-24 11:55:00,
2013-02-24 06:00:00,19.1,14.9,30.03,West,270,1.9,3.0,84,0.00,,,0.00,WUHU216HW,2013-02-24 12:00:00,
2013-02-24 06:05:00,19.1,14.9,30.04,West,270,0.5,3.0,84,0.00,,,0.00,WUHU216HW,2013-02-24 12:05:00,
2013-02-24 06:10:00,19.1,14.9,30.04,West,270,0.5,2.6,84,0.00,,,0.00,WUHU216HW,2013-02-24 12:10:00,
2013-02-24 06:15:00,18.9,14.5,30.05,South,180,0.6,1.3,83,0.00,,,0.00,WUHU216HW,2013-02-24 12:15:00,
2013-02-24 06:20:00,18.7,14.3,30.05,South,176,0.9,1.3,83,0.00,,,0.00,WUHU216HW,2013-02-24 12:20:00,
2013-02-24 06:26:00,18.4,14.0,30.05,SSE,158,0.8,1.3,83,0.00,,,0.00,WUHU216HW,2013-02-24 12:26:00,
2013-02-24 06:30:00,18.2,13.8,30.05,SSE,158,0.0,1.9,83,0.00,,,0.00,WUHU216HW,2013-02-24 12:30:00,
2013-02-24 06:36:00,18.0,13.6,30.05,SSE,158,0.0,1.9,83,0.00,,,0.00,WUHU216HW,2013-02-24 12:36:00,
2013-02-24 06:41:00,17.8,13.4,30.06,SSE,158,0.0,0.0,83,0.00,,,0.00,WUHU216HW,2013-02-24 12:41:00,
2013-02-24 06:46:00,17.6,13.2,30.06,South,180,0.5,0.5,83,0.00,,,0.00,WUHU216HW,2013-02-24 12:46:00,
2013-02-24 06:51:00,17.8,13.4,30.06,South,180,0.2,0.5,83,0.00,,,0.00,WUHU216HW,2013-02-24 12:51:00,
2013-02-24 06:56:00,17.8,13.4,30.06,South,180,0.5,0.5,83,0.00,,,0.00,WUHU216HW,2013-02-24 12:56:00,
2013-02-24 07:01:00,18.0,13.6,30.07,SSE,161,0.3,0.5,83,0.00,,,0.00,WUHU216HW,2013-02-24 13:01:00,
2013-02-24 07:06:00,18.2,14.0,30.07,SSW,203,0.8,0.8,84,0.00,,,0.00,WUHU216HW,2013-02-24 13:06:00,
2013-02-24 07:11:00,18.4,14.2,30.07,SSW,200,0.9,1.3,84,0.00,,,0.00,WUHU216HW,2013-02-24 13:11:00,
2013-02-24 07:16:00,19.1,14.9,30.07,South,191,0.8,1.3,84,0.00,,,0.00,WUHU216HW,2013-02-24 13:16:00,
2013-02-24 07:21:00,19.6,15.5,30.07,SW,235,0.6,1.3,84,0.00,,,0.00,WUHU216HW,2013-02-24 13:21:00,
2013-02-24 07:26:00,20.2,16.0,30.07,SSW,203,0.5,1.3,84,0.00,,,0.00,WUHU216HW,2013-02-24 13:26:00,
2013-02-24 07:31:00,20.5,16.4,30.07,SSW,203,0.8,0.8,84,0.00,,,0.00,WUHU216HW,2013-02-24 13:31:00,
2013-02-24 07:36:00,21.1,17.2,30.08,WSW,248,0.8,1.1,85,0.00,,,0.00,WUHU216HW,2013-02-24 13:36:00,
2013-02-24 07:41:00,21.6,17.5,30.08,WSW,248,0.5,1.1,84,0.00,,,0.00,WUHU216HW,2013-02-24 13:41:00,
2013-02-24 07:46:00,22.1,18.0,30.08,SSW,203,0.2,1.1,84,0.00,,,0.00,WUHU216HW,2013-02-24 13:46:00,
2013-02-24 07:51:00,22.7,18.3,30.08,SW,225,0.5,0.8,83,0.00,,,0.00,WUHU216HW,2013-02-24 13:51:00,
2013-02-24 07:56:00,23.4,19.0,30.08,SW,225,0.5,0.8,83,0.00,,,0.00,WUHU216HW,2013-02-24 13:56:00,
2013-02-24 08:01:00,24.1,19.4,30.08,WSW,247,0.8,1.9,82,0.00,,,0.00,WUHU216HW,2013-02-24 14:01:00,
2013-02-24 08:06:00,24.5,19.8,30.08,WSW,238,0.8,1.9,82,0.00,,,0.00,WUHU216HW,2013-02-24 14:06:00,
2013-02-24 08:11:00,24.7,19.7,30.09,SW,225,0.5,1.6,81,0.00,,,0.00,WUHU216HW,2013-02-24 14:11:00,
2013-02-24 08:16:00,25.2,20.0,30.08,SW,225,0.5,0.8,80,0.00,,,0.00,WUHU216HW,2013-02-24 14:16:00,
2013-02-24 08:21:00,25.6,20.3,30.08,SW,225,0.4,0.8,80,0.00,,,0.00,WUHU216HW,2013-02-24 14:21:00,
2013-02-24 08:26:00,25.9,20.6,30.09,WSW,256,1.4,2.2,80,0.00,,,0.00,WUHU216HW,2013-02-24 14:26:00,
2013-02-24 08:31:00,26.1,20.8,30.08,West,270,0.6,2.2,80,0.00,,,0.00,WUHU216HW,2013-02-24 14:31:00,
2013-02-24 08:36:00,26.1,20.4,30.08,West,271,0.7,1.3,79,0.00,,,0.00,WUHU216HW,2013-02-24 14:36:00,
2013-02-24 08:41:00,26.6,21.0,30.08,SSW,205,0.5,2.2,79,0.00,,,0.00,WUHU216HW,2013-02-24 14:41:00,
2013-02-24 08:46:00,27.4,21.7,30.09,WSW,248,0.2,2.2,79,0.00,,,0.00,WUHU216HW,2013-02-24 14:46:00,
2013-02-24 08:51:00,28.4,22.8,30.09,SW,234,0.7,1.6,79,0.00,,,0.00,WUHU216HW,2013-02-24 14:51:00,
2013-02-24 08:56:00,29.5,23.5,30.09,WSW,248,0.5,1.6,78,0.00,,,0.00,WUHU216HW,2013-02-24 14:56:00,
2013-02-24 09:01:00,30.6,24.6,30.09,SSW,203,0.5,0.8,78,0.00,,,0.00,WUHU216HW,2013-02-24 15:01:00,
2013-02-24 09:06:00,31.7,25.3,30.09,SW,225,0.5,0.8,77,0.00,,,0.00,WUHU216HW,2013-02-24 15:06:00,
2013-02-24 09:11:00,32.6,25.8,30.09,WSW,248,0.6,0.8,76,0.00,,,0.00,WUHU216HW,2013-02-24 15:11:00,
2013-02-24 09:16:00,33.7,26.5,30.10,WSW,248,0.5,0.8,75,0.00,,,0.00,WUHU216HW,2013-02-24 15:16:00,
2013-02-24 09:21:00,34.6,27.0,30.10,WSW,248,0.7,2.2,74,0.00,,,0.00,WUHU216HW,2013-02-24 15:21:00,
2013-02-24 09:26:00,35.5,27.6,30.10,WSW,248,1.3,2.2,73,0.00,,,0.00,WUHU216HW,2013-02-24 15:26:00,
2013-02-24 09:31:00,36.0,27.6,30.10,WSW,248,1.3,1.6,71,0.00,,,0.00,WUHU216HW,2013-02-24 15:31:00,
2013-02-24 09:36:00,36.4,27.9,30.10,West,270,2.2,2.2,71,0.00,,,0.00,WUHU216HW,2013-02-24 15:36:00,
2013-02-24 09:41:00,36.7,27.9,30.10,SW,230,0.6,2.2,70,0.00,,,0.00,WUHU216HW,2013-02-24 15:41:00,
2013-02-24 09:46:00,36.9,27.4,30.10,WSW,248,1.1,4.3,68,0.00,,,0.00,WUHU216HW,2013-02-24 15:46:00,
2013-02-24 09:51:00,37.3,27.3,30.10,West,270,1.9,4.3,67,0.00,,,0.00,WUHU216HW,2013-02-24 15:51:00,
2013-02-24 09:56:00,37.6,27.6,30.10,SW,225,1.1,3.2,67,0.00,,,0.00,WUHU216HW,2013-02-24 15:56:00,
2013-02-24 10:01:00,37.6,27.3,30.11,West,263,2.0,3.2,66,0.00,,,0.00,WUHU216HW,2013-02-24 16:01:00,
2013-02-24 10:06:00,37.8,27.1,30.11,WSW,248,1.1,3.0,65,0.00,,,0.00,WUHU216HW,2013-02-24 16:06:00,
2013-02-24 10:11:00,38.5,27.7,30.11,WSW,239,1.3,2.2,65,0.00,,,0.00,WUHU216HW,2013-02-24 16:11:00,
2013-02-24 10:16:00,39.2,28.0,30.11,SW,224,1.8,2.6,64,0.00,,,0.00,WUHU216HW,2013-02-24 16:16:00,
2013-02-24 10:21:00,39.4,27.8,30.11,WSW,237,1.7,3.0,63,0.00,,,0.00,WUHU216HW,2013-02-24 16:21:00,
2013-02-24 10:26:00,39.6,26.4,30.11,SW,225,2.2,3.7,59,0.00,,,0.00,WUHU216HW,2013-02-24 16:26:00,
2013-02-24 10:31:00,39.1,26.3,30.11,SW,225,1.6,3.7,60,0.00,,,0.00,WUHU216HW,2013-02-24 16:31:00,
2013-02-24 10:36:00,39.2,27.2,30.12,West,270,5.6,5.9,62,0.00,,,0.00,WUHU216HW,2013-02-24 16:36:00,
2013-02-24 10:41:00,39.2,26.5,30.11,SW,225,2.4,5.9,60,0.00,,,0.00,WUHU216HW,2013-02-24 16:41:00,
2013-02-24 10:46:00,39.2,25.6,30.12,WSW,248,4.1,5.6,58,0.00,,,0.00,WUHU216HW,2013-02-24 16:46:00,
2013-02-24 10:51:00,38.7,24.7,30.12,West,270,5.6,7.0,57,0.00,,,0.00,WUHU216HW,2013-02-24 16:51:00,
2013-02-24 10:56:00,38.2,24.7,30.12,West,261,2.9,7.0,58,0.00,,,0.00,WUHU216HW,2013-02-24 16:56:00,
2013-02-24 11:01:00,38.7,26.0,30.12,WSW,249,1.3,5.6,60,0.00,,,0.00,WUHU216HW,2013-02-24 17:01:00,
2013-02-24 11:06:00,39.2,26.5,30.12,WSW,248,1.1,4.8,60,0.00,,,0.00,WUHU216HW,2013-02-24 17:06:00,
2013-02-24 11:11:00,40.0,26.7,30.12,SW,228,1.4,4.8,59,0.00,,,0.00,WUHU216HW,2013-02-24 17:11:00,
2013-02-24 11:16:00,40.5,27.3,30.12,SW,234,1.4,2.2,59,0.00,,,0.00,WUHU216HW,2013-02-24 17:16:00,
2013-02-24 11:21:00,41.0,27.8,30.12,SW,230,1.2,2.2,59,0.00,,,0.00,WUHU216HW,2013-02-24 17:21:00,
2013-02-24 11:26:00,41.2,28.0,30.12,SW,225,1.1,2.2,59,0.00,,,0.00,WUHU216HW,2013-02-24 17:26:00,
2013-02-24 11:31:00,41.0,26.9,30.12,WSW,257,3.9,4.8,57,0.00,,,0.00,WUHU216HW,2013-02-24 17:31:00,
2013-02-24 11:36:00,40.7,27.0,30.12,SW,225,0.6,4.8,58,0.00,,,0.00,WUHU216HW,2013-02-24 17:36:00,
2013-02-24 11:41:00,40.9,27.2,30.12,WSW,238,1.5,4.1,58,0.00,,,0.00,WUHU216HW,2013-02-24 17:41:00,
2013-02-24 11:46:00,41.0,27.4,30.12,West,270,4.1,4.1,58,0.00,,,0.00,WUHU216HW,2013-02-24 17:46:00,
2013-02-24 11:51:00,40.5,26.4,30.11,West,262,0.7,4.1,57,0.00,,,0.00,WUHU216HW,2013-02-24 17:51:00,
2013-02-24 11:56:00,40.7,27.0,30.12,West,270,1.6,4.1,58,0.00,,,0.00,WUHU216HW,2013-02-24 17:56:00,
2013-02-24 12:01:00,41.0,27.8,30.12,SSW,212,0.7,3.0,59,0.00,,,0.00,WUHU216HW,2013-02-24 18:01:00,
2013-02-24 12:06:00,41.2,27.6,30.11,South,180,3.5,3.5,58,0.00,,,0.00,WUHU216HW,2013-02-24 18:06:00,
2013-02-24 12:11:00,41.2,27.1,30.11,WSW,248,1.6,3.5,57,0.00,,,0.00,WUHU216HW,2013-02-24 18:11:00,
2013-02-24 12:16:00,41.2,27.6,30.11,West,259,0.6,3.5,58,0.00,,,0.00,WUHU216HW,2013-02-24 18:16:00,
2013-02-24 12:21:00,41.0,26.9,30.11,West,270,2.6,4.1,57,0.00,,,0.00,WUHU216HW,2013-02-24 18:21:00,
2013-02-24 12:26:00,41.0,27.8,30.11,South,174,1.5,4.1,59,0.00,,,0.00,WUHU216HW,2013-02-24 18:26:00,
2013-02-24 12:31:00,41.4,28.2,30.11,WSW,248,0.6,2.6,59,0.00,,,0.00,WUHU216HW,2013-02-24 18:31:00,
2013-02-24 12:36:00,41.6,27.9,30.11,SW,225,1.6,2.2,58,0.00,,,0.00,WUHU216HW,2013-02-24 18:36:00,
2013-02-24 12:41:00,41.6,27.5,30.11,West,270,1.9,1.9,57,0.00,,,0.00,WUHU216HW,2013-02-24 18:41:00,
2013-02-24 12:46:00,41.4,27.7,30.11,SSW,203,0.4,2.2,58,0.00,,,0.00,WUHU216HW,2013-02-24 18:46:00,
2013-02-24 12:51:00,41.4,27.7,30.11,SW,228,1.1,2.2,58,0.00,,,0.00,WUHU216HW,2013-02-24 18:51:00,
2013-02-24 12:56:00,41.4,27.3,30.11,SW,233,1.0,2.2,57,0.00,,,0.00,WUHU216HW,2013-02-24 18:56:00,
2013-02-24 13:01:00,41.6,27.5,30.10,West,260,2.3,3.5,57,0.00,,,0.00,WUHU216HW,2013-02-24 19:01:00,
2013-02-24 13:06:00,41.6,27.9,30.10,SSE,158,1.3,3.5,58,0.00,,,0.00,WUHU216HW,2013-02-24 19:06:00,
2013-02-24 13:11:00,41.8,27.5,30.10,West,270,3.2,3.2,57,0.00,,,0.00,WUHU216HW,2013-02-24 19:11:00,
2013-02-24 13:16:00,41.6,26.6,30.10,WNW,293,5.4,5.4,55,0.00,,,0.00,WUHU216HW,2013-02-24 19:16:00,
2013-02-24 13:21:00,41.2,26.7,30.11,SW,225,1.9,5.4,56,0.00,,,0.00,WUHU216HW,2013-02-24 19:21:00,
2013-02-24 13:26:00,41.0,26.9,30.10,SSW,208,1.5,4.8,57,0.00,,,0.00,WUHU216HW,2013-02-24 19:26:00,
2013-02-24 13:31:00,40.9,26.3,30.10,WNW,293,4.1,4.1,56,0.00,,,0.00,WUHU216HW,2013-02-24 19:31:00,
2013-02-24 13:36:00,40.7,26.1,30.10,WSW,248,4.6,5.2,56,0.00,,,0.00,WUHU216HW,2013-02-24 19:36:00,
2013-02-24 13:41:00,40.7,26.6,30.10,WSW,258,1.7,5.2,57,0.00,,,0.00,WUHU216HW,2013-02-24 19:41:00,
2013-02-24 13:46:00,40.7,26.6,30.10,SSW,203,0.5,4.6,57,0.00,,,0.00,WUHU216HW,2013-02-24 19:46:00,
2013-02-24 13:51:00,40.9,26.3,30.10,WSW,248,5.4,6.1,56,0.00,,,0.00,WUHU216HW,2013-02-24 19:51:00,
2013-02-24 13:56:00,40.9,26.7,30.10,West,271,1.5,6.1,57,0.00,,,0.00,WUHU216HW,2013-02-24 19:56:00,
2013-02-24 14:01:00,41.0,26.0,30.10,West,270,3.5,5.4,55,0.00,,,0.00,WUHU216HW,2013-02-24 20:01:00,
2013-02-24 14:06:00,41.0,26.9,30.10,WNW,296,0.9,4.1,57,0.00,,,0.00,WUHU216HW,2013-02-24 20:06:00,
2013-02-24 14:11:00,41.0,26.9,30.10,SW,226,0.7,3.5,57,0.00,,,0.00,WUHU216HW,2013-02-24 20:11:00,
2013-02-24 14:16:00,41.4,26.8,30.10,West,270,1.5,2.2,56,0.00,,,0.00,WUHU216HW,2013-02-24 20:16:00,
2013-02-24 14:21:00,41.4,27.3,30.10,WSW,253,1.7,3.2,57,0.00,,,0.00,WUHU216HW,2013-02-24 20:21:00,
2013-02-24 14:26:00,41.8,27.5,30.10,West,266,1.4,3.7,57,0.00,,,0.00,WUHU216HW,2013-02-24 20:26:00,
2013-02-24 14:31:00,41.8,25.4,30.10,ENE,58,2.3,3.7,52,0.00,,,0.00,WUHU216HW,2013-02-24 20:31:00,
2013-02-24 14:36:00,41.2,26.2,30.10,SSE,158,0.8,2.6,55,0.00,,,0.00,WUHU216HW,2013-02-24 20:36:00,
2013-02-24 14:41:00,41.4,26.8,30.10,South,180,1.3,2.2,56,0.00,,,0.00,WUHU216HW,2013-02-24 20:41:00,
2013-02-24 14:46:00,41.9,27.7,30.10,SSE,155,0.9,1.9,57,0.00,,,0.00,WUHU216HW,2013-02-24 20:46:00,
2013-02-24 14:51:00,41.8,26.3,30.10,NNE,18,1.4,3.2,54,0.00,,,0.00,WUHU216HW,2013-02-24 20:51:00,
2013-02-24 14:56:00,41.2,25.3,30.10,NE,40,2.5,4.1,53,0.00,,,0.00,WUHU216HW,2013-02-24 20:56:00,
2013-02-24 15:01:00,40.7,25.2,30.10,NNE,25,2.7,4.6,54,0.00,,,0.00,WUHU216HW,2013-02-24 21:01:00,
2013-02-24 15:06:00,40.5,25.5,30.10,ENE,63,2.5,4.6,55,0.00,,,0.00,WUHU216HW,2013-02-24 21:06:00,
2013-02-24 15:11:00,40.3,25.3,30.10,NNE,17,2.2,5.2,55,0.00,,,0.00,WUHU216HW,2013-02-24 21:11:00,
2013-02-24 15:16:00,40.5,25.9,30.10,NE,38,1.8,5.2,56,0.00,,,0.00,WUHU216HW,2013-02-24 21:16:00,
2013-02-24 15:21:00,40.3,25.7,30.10,NNW,338,2.2,3.0,56,0.00,,,0.00,WUHU216HW,2013-02-24 21:21:00,
2013-02-24 15:26:00,40.1,25.6,30.10,North,353,2.5,4.3,56,0.00,,,0.00,WUHU216HW,2013-02-24 21:26:00,
2013-02-24 15:31:00,40.1,25.6,30.10,NE,45,1.3,4.3,56,0.00,,,0.00,WUHU216HW,2013-02-24 21:31:00,
2013-02-24 15:36:00,40.0,25.0,30.10,NW,315,1.6,3.0,55,0.00,,,0.00,WUHU216HW,2013-02-24 21:36:00,
2013-02-24 15:41:00,39.6,24.7,30.11,NNW,338,3.0,3.2,55,0.00,,,0.00,WUHU216HW,2013-02-24 21:41:00,
2013-02-24 15:46:00,39.6,25.1,30.11,NW,315,2.2,3.2,56,0.00,,,0.00,WUHU216HW,2013-02-24 21:46:00,
2013-02-24 15:51:00,39.6,25.5,30.11,NNE,21,1.2,3.2,57,0.00,,,0.00,WUHU216HW,2013-02-24 21:51:00,
2013-02-24 15:56:00,39.8,25.7,30.11,North,0,1.3,3.0,57,0.00,,,0.00,WUHU216HW,2013-02-24 21:56:00,
2013-02-24 16:01:00,39.8,25.7,30.11,North,351,1.2,3.0,57,0.00,,,0.00,WUHU216HW,2013-02-24 22:01:00,
2013-02-24 16:06:00,39.6,25.1,30.11,North,350,1.1,2.4,56,0.00,,,0.00,WUHU216HW,2013-02-24 22:06:00,
2013-02-24 16:11:00,39.6,25.1,30.11,NW,315,1.3,1.6,56,0.00,,,0.00,WUHU216HW,2013-02-24 22:11:00,
2013-02-24 16:16:00,39.4,25.4,30.11,NW,315,0.8,1.6,57,0.00,,,0.00,WUHU216HW,2013-02-24 22:16:00,
2013-02-24 16:21:00,39.4,25.4,30.11,NE,35,1.2,4.1,57,0.00,,,0.00,WUHU216HW,2013-02-24 22:21:00,
2013-02-24 16:26:00,39.2,25.2,30.11,ENE,68,1.9,4.1,57,0.00,,,0.00,WUHU216HW,2013-02-24 22:26:00,
2013-02-24 16:31:00,39.2,24.8,30.11,NNE,17,3.5,4.1,56,0.00,,,0.00,WUHU216HW,2013-02-24 22:31:00,
2013-02-24 16:36:00,38.9,24.8,30.11,NNW,336,0.7,4.1,57,0.00,,,0.00,WUHU216HW,2013-02-24 22:36:00,
2013-02-24 16:41:00,38.5,24.9,30.11,NNE,23,3.2,3.2,58,0.00,,,0.00,WUHU216HW,2013-02-24 22:41:00,
2013-02-24 16:46:00,38.5,24.9,30.12,NNW,345,1.3,3.2,58,0.00,,,0.00,WUHU216HW,2013-02-24 22:46:00,
2013-02-24 16:51:00,38.2,24.7,30.11,NNW,346,1.4,3.2,58,0.00,,,0.00,WUHU216HW,2013-02-24 22:51:00,
2013-02-24 16:56:00,37.8,24.8,30.12,NNW,333,0.8,1.6,59,0.00,,,0.00,WUHU216HW,2013-02-24 22:56:00,
2013-02-24 17:01:00,37.6,24.6,30.11,North,0,0.5,1.3,59,0.00,,,0.00,WUHU216HW,2013-02-24 23:01:00,
2013-02-24 17:06:00,37.4,24.4,30.12,North,10,0.6,1.3,59,0.00,,,0.00,WUHU216HW,2013-02-24 23:06:00,
2013-02-24 17:11:00,37.3,24.7,30.12,North,353,0.4,1.3,60,0.00,,,0.00,WUHU216HW,2013-02-24 23:11:00,
2013-02-24 17:16:00,37.1,24.5,30.11,NNE,16,1.1,1.6,60,0.00,,,0.00,WUHU216HW,2013-02-24 23:16:00,
2013-02-24 17:21:00,36.7,24.2,30.12,NNE,23,0.5,1.6,60,0.00,,,0.00,WUHU216HW,2013-02-24 23:21:00,
2013-02-24 17:26:00,36.4,23.9,30.12,ENE,74,0.3,0.5,60,0.00,,,0.00,WUHU216HW,2013-02-24 23:26:00,
2013-02-24 17:31:00,36.2,23.7,30.12,NNE,23,0.0,0.5,60,0.00,,,0.00,WUHU216HW,2013-02-24 23:31:00,
2013-02-24 17:36:00,35.8,23.8,30.12,NNE,23,0.0,0.5,61,0.00,,,0.00,WUHU216HW,2013-02-24 23:36:00,
2013-02-24 17:41:00,35.5,23.8,30.12,NNE,25,1.1,1.3,62,0.00,,,0.00,WUHU216HW,2013-02-24 23:41:00,
2013-02-24 17:46:00,35.1,23.4,30.12,SSE,158,0.0,1.3,62,0.00,,,0.00,WUHU216HW,2013-02-24 23:46:00,
2013-02-24 17:51:00,34.9,23.2,30.12,SSE,158,0.0,0.8,62,0.00,,,0.00,WUHU216HW,2013-02-24 23:51:00,
2013-02-24 17:56:00,34.6,22.9,30.12,SSE,158,0.2,0.2,62,0.00,,,0.00,WUHU216HW,2013-02-24 23:56:00,
2013-02-24 18:01:00,34.2,22.9,30.12,SSE,158,0.0,0.2,63,0.00,,,0.00,WUHU216HW,2013-02-25 00:01:00,
2013-02-24 18:06:00,33.8,22.5,30.12,SSE,158,0.0,0.2,63,0.00,,,0.00,WUHU216HW,2013-02-25 00:06:00,
2013-02-24 18:11:00,33.7,22.7,30.12,SSE,158,0.2,0.2,64,0.00,,,0.00,WUHU216HW,2013-02-25 00:11:00,
2013-02-24 18:16:00,33.1,22.2,30.12,SSE,158,0.0,0.2,64,0.00,,,0.00,WUHU216HW,2013-02-25 00:16:00,
2013-02-24 18:21:00,32.8,22.2,30.12,SSE,158,0.0,0.0,65,0.00,,,0.00,WUHU216HW,2013-02-25 00:21:00,
2013-02-24 18:26:00,32.6,22.1,30.13,SSE,158,0.0,0.0,65,0.00,,,0.00,WUHU216HW,2013-02-25 00:26:00,
2013-02-24 18:31:00,32.2,22.2,30.13,ENE,68,1.1,1.1,66,0.00,,,0.00,WUHU216HW,2013-02-25 00:31:00,
2013-02-24 18:36:00,32.0,22.3,30.13,East,96,0.7,1.1,67,0.00,,,0.00,WUHU216HW,2013-02-25 00:36:00,
2013-02-24 18:41:00,32.0,22.3,30.13,East,90,0.3,1.3,67,0.00,,,0.00,WUHU216HW,2013-02-25 00:41:00,
2013-02-24 18:46:00,31.9,21.8,30.14,SSE,158,0.0,1.3,66,0.00,,,0.00,WUHU216HW,2013-02-25 00:46:00,
2013-02-24 18:51:00,31.5,21.4,30.14,SSE,158,0.0,1.1,66,0.00,,,0.00,WUHU216HW,2013-02-25 00:51:00,
2013-02-24 18:56:00,31.1,21.1,30.14,SSE,158,0.0,0.0,66,0.00,,,0.00,WUHU216HW,2013-02-25 00:56:00,
2013-02-24 19:01:00,30.8,21.1,30.14,SSE,158,0.2,0.2,67,0.00,,,0.00,WUHU216HW,2013-02-25 01:01:00,
2013-02-24 19:06:00,30.6,20.9,30.14,SSE,158,0.0,0.2,67,0.00,,,0.00,WUHU216HW,2013-02-25 01:06:00,
2013-02-24 19:11:00,30.4,21.1,30.14,SSE,158,0.2,0.2,68,0.00,,,0.00,WUHU216HW,2013-02-25 01:11:00,
2013-02-24 19:16:00,30.2,20.9,30.14,SSE,158,0.0,0.2,68,0.00,,,0.00,WUHU216HW,2013-02-25 01:16:00,
2013-02-24 19:21:00,29.9,20.9,30.14,SSE,158,0.0,0.0,69,0.00,,,0.00,WUHU216HW,2013-02-25 01:21:00,
2013-02-24 19:26:00,29.7,20.8,30.14,SSE,158,0.0,0.0,69,0.00,,,0.00,WUHU216HW,2013-02-25 01:26:00,
2013-02-24 19:31:00,29.5,21.0,30.14,SSE,158,0.0,0.0,70,0.00,,,0.00,WUHU216HW,2013-02-25 01:31:00,
2013-02-24 19:36:00,29.3,20.8,30.14,SSE,158,0.0,0.0,70,0.00,,,0.00,WUHU216HW,2013-02-25 01:36:00,
2013-02-24 19:41:00,29.2,20.6,30.14,SSE,158,0.0,0.0,70,0.00,,,0.00,WUHU216HW,2013-02-25 01:41:00,
2013-02-24 19:46:00,29.0,20.4,30.14,SSE,158,0.0,0.0,70,0.00,,,0.00,WUHU216HW,2013-02-25 01:46:00,
2013-02-24 19:51:00,28.8,20.6,30.15,SSE,158,0.0,0.0,71,0.00,,,0.00,WUHU216HW,2013-02-25 01:51:00,
2013-02-24 19:56:00,28.4,20.3,30.15,SSE,158,0.0,0.0,71,0.00,,,0.00,WUHU216HW,2013-02-25 01:56:00,
2013-02-24 20:01:00,28.4,20.3,30.15,SSE,158,0.0,0.0,71,0.00,,,0.00,WUHU216HW,2013-02-25 02:01:00,
2013-02-24 20:06:00,28.3,20.4,30.15,SSE,158,0.0,0.0,72,0.00,,,0.00,WUHU216HW,2013-02-25 02:06:00,
2013-02-24 20:11:00,28.1,20.3,30.15,SSE,158,0.0,0.0,72,0.00,,,0.00,WUHU216HW,2013-02-25 02:11:00,
2013-02-24 20:16:00,27.9,20.1,30.15,SSE,158,0.0,0.0,72,0.00,,,0.00,WUHU216HW,2013-02-25 02:16:00,
2013-02-24 20:21:00,27.7,20.2,30.15,SSE,158,0.0,0.0,73,0.00,,,0.00,WUHU216HW,2013-02-25 02:21:00,
2013-02-24 20:26:00,27.7,20.2,30.15,SSE,158,0.0,0.0,73,0.00,,,0.00,WUHU216HW,2013-02-25 02:26:00,
2013-02-24 20:31:00,27.5,20.0,30.14,SSE,158,0.0,0.0,73,0.00,,,0.00,WUHU216HW,2013-02-25 02:31:00,
2013-02-24 20:36:00,27.4,19.5,30.14,SSE,158,0.0,0.0,72,0.00,,,0.00,WUHU216HW,2013-02-25 02:36:00,
2013-02-24 20:41:00,27.2,19.4,30.15,SSE,158,0.0,0.0,72,0.00,,,0.00,WUHU216HW,2013-02-25 02:41:00,
2013-02-24 20:46:00,27.0,19.4,30.14,SSE,158,0.0,0.0,73,0.00,,,0.00,WUHU216HW,2013-02-25 02:46:00,
2013-02-24 20:51:00,26.8,19.3,30.15,SSE,158,0.0,0.0,73,0.00,,,0.00,WUHU216HW,2013-02-25 02:51:00,
2013-02-24 20:56:00,26.8,19.6,30.14,SSE,158,0.0,0.0,74,0.00,,,0.00,WUHU216HW,2013-02-25 02:56:00,
2013-02-24 21:01:00,26.6,19.5,30.15,SSE,158,0.0,0.0,74,0.00,,,0.00,WUHU216HW,2013-02-25 03:01:00,
2013-02-24 21:06:00,26.6,19.5,30.15,SSE,158,0.0,0.0,74,0.00,,,0.00,WUHU216HW,2013-02-25 03:06:00,
2013-02-24 21:11:00,26.5,19.3,30.15,SSE,158,0.0,0.0,74,0.00,,,0.00,WUHU216HW,2013-02-25 03:11:00,
2013-02-24 21:16:00,26.3,19.4,30.15,SSE,158,0.0,0.0,75,0.00,,,0.00,WUHU216HW,2013-02-25 03:16:00,
2013-02-24 21:21:00,26.3,19.4,30.15,SSE,158,0.0,0.0,75,0.00,,,0.00,WUHU216HW,2013-02-25 03:21:00,
2013-02-24 21:26:00,26.1,19.2,30.15,SSE,158,0.0,0.0,75,0.00,,,0.00,WUHU216HW,2013-02-25 03:26:00,
2013-02-24 21:31:00,25.9,19.0,30.15,SSE,158,0.0,0.0,75,0.00,,,0.00,WUHU216HW,2013-02-25 03:31:00,
2013-02-24 21:36:00,25.9,19.0,30.14,SSE,158,0.0,0.0,75,0.00,,,0.00,WUHU216HW,2013-02-25 03:36:00,
2013-02-24 21:41:00,25.7,18.8,30.15,SSE,158,0.0,0.0,75,0.00,,,0.00,WUHU216HW,2013-02-25 03:41:00,
2013-02-24 21:46:00,25.7,19.2,30.15,SSE,158,0.0,0.0,76,0.00,,,0.00,WUHU216HW,2013-02-25 03:46:00,
2013-02-24 21:51:00,25.6,19.0,30.15,SE,135,0.0,0.8,76,0.00,,,0.00,WUHU216HW,2013-02-25 03:51:00,
2013-02-24 21:56:00,25.6,19.0,30.15,SE,135,0.0,0.8,76,0.00,,,0.00,WUHU216HW,2013-02-25 03:56:00,
2013-02-24 22:01:00,25.4,18.8,30.15,SE,135,0.0,0.0,76,0.00,,,0.00,WUHU216HW,2013-02-25 04:01:00,
2013-02-24 22:06:00,25.4,19.2,30.15,SE,135,0.0,0.0,77,0.00,,,0.00,WUHU216HW,2013-02-25 04:06:00,
2013-02-24 22:11:00,25.2,19.0,30.15,SE,135,0.0,0.0,77,0.00,,,0.00,WUHU216HW,2013-02-25 04:11:00,
2013-02-24 22:16:00,25.2,19.0,30.15,SE,135,0.0,0.0,77,0.00,,,0.00,WUHU216HW,2013-02-25 04:16:00,
2013-02-24 22:21:00,25.0,18.8,30.15,SE,135,0.0,0.0,77,0.00,,,0.00,WUHU216HW,2013-02-25 04:21:00,
2013-02-24 22:26:00,24.8,18.6,30.15,SE,135,0.0,0.0,77,0.00,,,0.00,WUHU216HW,2013-02-25 04:26:00,
2013-02-24 22:31:00,24.8,18.6,30.15,SE,135,0.0,0.0,77,0.00,,,0.00,WUHU216HW,2013-02-25 04:31:00,
2013-02-24 22:36:00,24.8,18.6,30.15,SE,135,0.0,0.0,77,0.00,,,0.00,WUHU216HW,2013-02-25 04:36:00,
2013-02-24 22:41:00,24.7,18.8,30.15,SE,135,0.0,0.0,78,0.00,,,0.00,WUHU216HW,2013-02-25 04:41:00,
2013-02-24 22:46:00,24.7,18.8,30.15,SE,135,0.0,0.0,78,0.00,,,0.00,WUHU216HW,2013-02-25 04:46:00,
2013-02-24 22:51:00,24.5,18.6,30.15,SE,135,0.0,0.0,78,0.00,,,0.00,WUHU216HW,2013-02-25 04:51:00,
2013-02-24 22:56:00,24.5,18.6,30.15,SE,135,0.0,0.5,78,0.00,,,0.00,WUHU216HW,2013-02-25 04:56:00,
2013-02-24 23:00:00,24.5,18.6,30.15,SE,135,0.0,0.5,78,0.00,,,0.00,WUHU216HW,2013-02-25 05:00:00,
2013-02-24 23:05:00,24.3,18.5,30.15,SE,135,0.0,0.0,78,0.00,,,0.00,WUHU216HW,2013-02-25 05:05:00,
2013-02-24 23:10:00,24.1,18.5,30.15,SE,135,0.0,0.0,79,0.00,,,0.00,WUHU216HW,2013-02-25 05:10:00,
2013-02-24 23:15:00,24.1,18.5,30.15,SE,135,0.0,0.0,79,0.00,,,0.00,WUHU216HW,2013-02-25 05:15:00,
2013-02-24 23:20:00,24.1,18.5,30.15,SE,135,0.0,0.0,79,0.00,,,0.00,WUHU216HW,2013-02-25 05:20:00,
2013-02-24 23:25:00,24.1,18.5,30.15,SE,135,0.4,0.5,79,0.00,,,0.00,WUHU216HW,2013-02-25 05:25:00,
2013-02-24 23:30:00,24.1,18.5,30.15,SE,135,0.0,0.5,79,0.00,,,0.00,WUHU216HW,2013-02-25 05:30:00,
2013-02-24 23:35:00,23.9,18.4,30.15,SE,135,0.0,0.5,79,0.00,,,0.00,WUHU216HW,2013-02-25 05:35:00,
2013-02-24 23:40:00,23.9,18.4,30.15,SE,135,0.0,0.5,79,0.00,,,0.00,WUHU216HW,2013-02-25 05:40:00,
2013-02-24 23:45:00,23.8,17.9,30.15,SE,135,0.3,0.5,78,0.00,,,0.00,WUHU216HW,2013-02-25 05:45:00,
2013-02-24 23:50:00,23.8,18.3,30.15,ESE,113,0.6,0.8,79,0.00,,,0.00,WUHU216HW,2013-02-25 05:50:00,
2013-02-24 23:55:00,23.8,18.3,30.15,ESE,113,0.0,0.8,79,0.00,,,0.00,WUHU216HW,2013-02-25 05:55:00,